Terminal Aerodrome Forecast
Issued by NWS St Louis, MO

Home | Current Version | Previous Version | Text Only | Print | Product List | Glossary On
Versions: 1 2 3 4 5 6 7 8 9 10 11 12 13 14 15 16 17 18
295
FTUS43 KLSX 262340
TAFCOU
TAF
KCOU 262340Z 2700/2724 15007KT P6SM SCT200
     FM270600 10010KT P6SM VCTS BKN050CB
      TEMPO 2708/2711 3SM TSRA BKN020CB
     FM271200 10012KT P6SM VCSH OVC040
     FM271600 13013G19KT P6SM BKN070=

USA.gov is the U.S. government's official web portal to all federal, state and local government web resources and services.